Ibitiara, Brazil
Current Conditions -  °F | °C
As of 5:00 AM on Monday 24 Nov 2014 (Local Time) from SBQV Reporting Station
Broken Clouds Broken Clouds  
Wind Chill: 68°   Ceiling: 400
Heat Index: 68°   Visibility: 6mi
Dew Point: 66°   Wind: 7mph
Humidity: 94%   Direction: 70°ENE
Pressure: 30.06"   Gusts: NA
Location:  12.65°S, 42.22°W
Report Text: SBQV 240800Z 07006KT 9999 BKN004 SCT008 20/19 Q1018
Loading
Personal Weather Stations






























Interactive Weather Map New forecast layout! Learn more

10-Day Weather Forecast

Advertisements
Track Severe Weather on mobile